sensor_id;sensor_type;location;lat;lon;timestamp;P1;durP1;ratioP1;P2;durP2;ratioP2
23714;SDS011;12036;50.858;4.472;2022-12-29T00:01:44;1.13;;;1.02;;
23714;SDS011;12036;50.858;4.472;2022-12-29T00:04:11;0.82;;;0.80;;
23714;SDS011;12036;50.858;4.472;2022-12-29T00:06:38;1.00;;;0.73;;
23714;SDS011;12036;50.858;4.472;2022-12-29T00:09:04;5.07;;;0.80;;
23714;SDS011;12036;50.858;4.472;2022-12-29T00:11:30;2.35;;;0.70;;
23714;SDS011;12036;50.858;4.472;2022-12-29T00:13:55;1.85;;;0.80;;
23714;SDS011;12036;50.858;4.472;2022-12-29T00:16:40;0.38;;;0.38;;
23714;SDS011;12036;50.858;4.472;2022-12-29T00:19:08;1.80;;;0.70;;
23714;SDS011;12036;50.858;4.472;2022-12-29T00:21:54;0.98;;;0.80;;
23714;SDS011;12036;50.858;4.472;2022-12-29T00:24:38;2.17;;;0.60;;
23714;SDS011;12036;50.858;4.472;2022-12-29T00:27:22;1.70;;;0.73;;
23714;SDS011;12036;50.858;4.472;2022-12-29T00:30:11;3.15;;;0.40;;
23714;SDS011;12036;50.858;4.472;2022-12-29T00:32:56;2.00;;;0.65;;
23714;SDS011;12036;50.858;4.472;2022-12-29T00:35:54;2.58;;;0.47;;
23714;SDS011;12036;50.858;4.472;2022-12-29T00:38:29;0.50;;;0.40;;
23714;SDS011;12036;50.858;4.472;2022-12-29T00:41:16;2.03;;;0.60;;
23714;SDS011;12036;50.858;4.472;2022-12-29T00:44:00;1.92;;;0.60;;
23714;SDS011;12036;50.858;4.472;2022-12-29T00:46:38;0.93;;;0.47;;
23714;SDS011;12036;50.858;4.472;2022-12-29T00:49:08;2.47;;;0.60;;
23714;SDS011;12036;50.858;4.472;2022-12-29T00:51:54;3.03;;;0.52;;
23714;SDS011;12036;50.858;4.472;2022-12-29T00:54:21;3.28;;;0.52;;
23714;SDS011;12036;50.858;4.472;2022-12-29T00:56:47;0.65;;;0.40;;
23714;SDS011;12036;50.858;4.472;2022-12-29T00:59:14;2.42;;;0.70;;
23714;SDS011;12036;50.858;4.472;2022-12-29T01:01:40;1.85;;;0.60;;
23714;SDS011;12036;50.858;4.472;2022-12-29T01:04:06;2.40;;;0.63;;
23714;SDS011;12036;50.858;4.472;2022-12-29T01:06:33;1.65;;;0.55;;
23714;SDS011;12036;50.858;4.472;2022-12-29T01:09:00;4.03;;;0.55;;
23714;SDS011;12036;50.858;4.472;2022-12-29T01:11:45;2.50;;;0.60;;
23714;SDS011;12036;50.858;4.472;2022-12-29T01:14:11;0.68;;;0.40;;
23714;SDS011;12036;50.858;4.472;2022-12-29T01:16:37;1.30;;;0.70;;
23714;SDS011;12036;50.858;4.472;2022-12-29T01:19:02;3.72;;;0.52;;
23714;SDS011;12036;50.858;4.472;2022-12-29T01:21:28;3.00;;;0.40;;
23714;SDS011;12036;50.858;4.472;2022-12-29T01:23:54;1.15;;;0.68;;
23714;SDS011;12036;50.858;4.472;2022-12-29T01:26:20;1.30;;;0.57;;
23714;SDS011;12036;50.858;4.472;2022-12-29T01:28:46;1.92;;;0.80;;
23714;SDS011;12036;50.858;4.472;2022-12-29T01:31:12;2.25;;;0.60;;
23714;SDS011;12036;50.858;4.472;2022-12-29T01:33:39;1.65;;;0.60;;
23714;SDS011;12036;50.858;4.472;2022-12-29T01:36:06;4.20;;;0.82;;
23714;SDS011;12036;50.858;4.472;2022-12-29T01:38:34;1.17;;;0.68;;
23714;SDS011;12036;50.858;4.472;2022-12-29T01:41:01;3.33;;;0.70;;
23714;SDS011;12036;50.858;4.472;2022-12-29T01:46:16;1.20;;;0.50;;
23714;SDS011;12036;50.858;4.472;2022-12-29T01:48:51;2.72;;;0.90;;
23714;SDS011;12036;50.858;4.472;2022-12-29T01:51:21;2.53;;;0.73;;
23714;SDS011;12036;50.858;4.472;2022-12-29T01:53:48;2.05;;;0.68;;
23714;SDS011;12036;50.858;4.472;2022-12-29T01:56:15;2.85;;;0.70;;
23714;SDS011;12036;50.858;4.472;2022-12-29T01:58:44;1.20;;;0.70;;
23714;SDS011;12036;50.858;4.472;2022-12-29T02:01:14;2.03;;;0.63;;
23714;SDS011;12036;50.858;4.472;2022-12-29T02:03:43;0.80;;;0.40;;
23714;SDS011;12036;50.858;4.472;2022-12-29T02:06:17;2.38;;;0.60;;
23714;SDS011;12036;50.858;4.472;2022-12-29T02:08:50;1.75;;;0.40;;
23714;SDS011;12036;50.858;4.472;2022-12-29T02:11:18;1.10;;;0.50;;
23714;SDS011;12036;50.858;4.472;2022-12-29T02:13:46;2.15;;;0.50;;
23714;SDS011;12036;50.858;4.472;2022-12-29T02:16:18;1.98;;;0.38;;
23714;SDS011;12036;50.858;4.472;2022-12-29T02:24:34;2.63;;;0.20;;
23714;SDS011;12036;50.858;4.472;2022-12-29T02:32:40;0.38;;;0.20;;
23714;SDS011;12036;50.858;4.472;2022-12-29T02:46:36;0.90;;;0.35;;
23714;SDS011;12036;50.858;4.472;2022-12-29T02:49:13;1.17;;;0.40;;
23714;SDS011;12036;50.858;4.472;2022-12-29T02:51:48;0.95;;;0.22;;
23714;SDS011;12036;50.858;4.472;2022-12-29T02:54:16;1.17;;;0.28;;
23714;SDS011;12036;50.858;4.472;2022-12-29T02:57:02;0.77;;;0.28;;
23714;SDS011;12036;50.858;4.472;2022-12-29T02:59:28;0.85;;;0.28;;
23714;SDS011;12036;50.858;4.472;2022-12-29T03:02:05;1.38;;;0.30;;
23714;SDS011;12036;50.858;4.472;2022-12-29T03:13:44;6.80;;;0.50;;
23714;SDS011;12036;50.858;4.472;2022-12-29T03:19:18;4.97;;;0.40;;
23714;SDS011;12036;50.858;4.472;2022-12-29T03:21:56;6.00;;;0.85;;
23714;SDS011;12036;50.858;4.472;2022-12-29T03:24:45;4.15;;;0.50;;
23714;SDS011;12036;50.858;4.472;2022-12-29T03:27:15;3.92;;;0.55;;
23714;SDS011;12036;50.858;4.472;2022-12-29T03:29:49;4.80;;;0.60;;
23714;SDS011;12036;50.858;4.472;2022-12-29T03:32:18;2.85;;;0.38;;
23714;SDS011;12036;50.858;4.472;2022-12-29T03:34:47;2.03;;;0.20;;
23714;SDS011;12036;50.858;4.472;2022-12-29T03:37:14;1.08;;;0.25;;
23714;SDS011;12036;50.858;4.472;2022-12-29T03:39:43;2.25;;;0.30;;
23714;SDS011;12036;50.858;4.472;2022-12-29T03:42:11;4.25;;;0.50;;
23714;SDS011;12036;50.858;4.472;2022-12-29T03:44:41;3.88;;;0.50;;
23714;SDS011;12036;50.858;4.472;2022-12-29T03:47:12;1.40;;;0.50;;
23714;SDS011;12036;50.858;4.472;2022-12-29T03:49:39;2.28;;;0.47;;
23714;SDS011;12036;50.858;4.472;2022-12-29T03:52:06;2.83;;;0.70;;
23714;SDS011;12036;50.858;4.472;2022-12-29T03:54:32;2.78;;;0.45;;
23714;SDS011;12036;50.858;4.472;2022-12-29T03:56:57;5.20;;;0.70;;
23714;SDS011;12036;50.858;4.472;2022-12-29T03:59:23;6.97;;;0.63;;
23714;SDS011;12036;50.858;4.472;2022-12-29T04:01:49;6.75;;;1.02;;
23714;SDS011;12036;50.858;4.472;2022-12-29T04:04:15;2.20;;;0.70;;
23714;SDS011;12036;50.858;4.472;2022-12-29T04:06:41;1.35;;;0.70;;
23714;SDS011;12036;50.858;4.472;2022-12-29T04:09:06;3.33;;;0.63;;
23714;SDS011;12036;50.858;4.472;2022-12-29T04:11:32;6.85;;;0.75;;
23714;SDS011;12036;50.858;4.472;2022-12-29T04:13:58;7.50;;;0.60;;
23714;SDS011;12036;50.858;4.472;2022-12-29T04:16:23;3.08;;;0.60;;
23714;SDS011;12036;50.858;4.472;2022-12-29T04:18:49;3.92;;;0.60;;
23714;SDS011;12036;50.858;4.472;2022-12-29T04:21:15;4.53;;;0.68;;
23714;SDS011;12036;50.858;4.472;2022-12-29T04:23:40;3.35;;;0.38;;
23714;SDS011;12036;50.858;4.472;2022-12-29T04:26:06;1.98;;;0.50;;
23714;SDS011;12036;50.858;4.472;2022-12-29T04:28:33;4.95;;;0.55;;
23714;SDS011;12036;50.858;4.472;2022-12-29T04:31:00;3.05;;;0.70;;
23714;SDS011;12036;50.858;4.472;2022-12-29T04:33:26;4.32;;;0.70;;
23714;SDS011;12036;50.858;4.472;2022-12-29T04:35:52;5.10;;;0.77;;
23714;SDS011;12036;50.858;4.472;2022-12-29T04:38:19;4.10;;;0.70;;
23714;SDS011;12036;50.858;4.472;2022-12-29T04:40:45;3.55;;;0.52;;
23714;SDS011;12036;50.858;4.472;2022-12-29T04:43:11;3.78;;;0.75;;
23714;SDS011;12036;50.858;4.472;2022-12-29T04:45:37;4.32;;;0.75;;
23714;SDS011;12036;50.858;4.472;2022-12-29T04:48:04;5.90;;;0.63;;
23714;SDS011;12036;50.858;4.472;2022-12-29T04:50:30;4.07;;;0.80;;
23714;SDS011;12036;50.858;4.472;2022-12-29T04:52:55;6.90;;;0.90;;
23714;SDS011;12036;50.858;4.472;2022-12-29T04:55:21;2.40;;;0.70;;
23714;SDS011;12036;50.858;4.472;2022-12-29T04:57:47;4.70;;;0.95;;
23714;SDS011;12036;50.858;4.472;2022-12-29T05:00:12;9.75;;;0.80;;
23714;SDS011;12036;50.858;4.472;2022-12-29T05:02:38;3.47;;;0.70;;
23714;SDS011;12036;50.858;4.472;2022-12-29T05:05:04;1.52;;;0.70;;
23714;SDS011;12036;50.858;4.472;2022-12-29T05:07:30;5.03;;;0.90;;
23714;SDS011;12036;50.858;4.472;2022-12-29T05:09:58;4.70;;;1.17;;
23714;SDS011;12036;50.858;4.472;2022-12-29T05:12:24;8.55;;;0.82;;
23714;SDS011;12036;50.858;4.472;2022-12-29T05:14:49;6.47;;;0.77;;
23714;SDS011;12036;50.858;4.472;2022-12-29T05:17:15;6.63;;;0.95;;
23714;SDS011;12036;50.858;4.472;2022-12-29T05:19:41;2.90;;;0.60;;
23714;SDS011;12036;50.858;4.472;2022-12-29T05:22:06;4.38;;;0.93;;
23714;SDS011;12036;50.858;4.472;2022-12-29T05:24:32;2.30;;;0.63;;
23714;SDS011;12036;50.858;4.472;2022-12-29T05:26:57;5.60;;;1.10;;
23714;SDS011;12036;50.858;4.472;2022-12-29T05:29:23;8.68;;;1.25;;
23714;SDS011;12036;50.858;4.472;2022-12-29T05:31:49;7.88;;;0.63;;
23714;SDS011;12036;50.858;4.472;2022-12-29T05:34:14;5.97;;;1.15;;
23714;SDS011;12036;50.858;4.472;2022-12-29T05:36:40;10.68;;;1.00;;
23714;SDS011;12036;50.858;4.472;2022-12-29T05:39:06;4.88;;;0.60;;
23714;SDS011;12036;50.858;4.472;2022-12-29T05:41:34;8.20;;;1.27;;
23714;SDS011;12036;50.858;4.472;2022-12-29T05:44:00;8.30;;;0.90;;
23714;SDS011;12036;50.858;4.472;2022-12-29T05:46:26;6.57;;;0.90;;
23714;SDS011;12036;50.858;4.472;2022-12-29T05:48:51;6.13;;;0.77;;
23714;SDS011;12036;50.858;4.472;2022-12-29T05:51:17;7.30;;;1.20;;
23714;SDS011;12036;50.858;4.472;2022-12-29T05:53:42;7.40;;;0.80;;
23714;SDS011;12036;50.858;4.472;2022-12-29T05:56:08;5.45;;;0.80;;
23714;SDS011;12036;50.858;4.472;2022-12-29T05:58:34;9.00;;;0.77;;
23714;SDS011;12036;50.858;4.472;2022-12-29T06:00:59;5.60;;;1.17;;
23714;SDS011;12036;50.858;4.472;2022-12-29T06:03:25;4.20;;;0.65;;
23714;SDS011;12036;50.858;4.472;2022-12-29T06:05:51;7.40;;;1.08;;
23714;SDS011;12036;50.858;4.472;2022-12-29T06:08:16;5.72;;;0.73;;
23714;SDS011;12036;50.858;4.472;2022-12-29T06:10:42;3.45;;;0.85;;
23714;SDS011;12036;50.858;4.472;2022-12-29T06:13:08;8.75;;;1.05;;
23714;SDS011;12036;50.858;4.472;2022-12-29T06:15:33;4.78;;;0.68;;
23714;SDS011;12036;50.858;4.472;2022-12-29T06:18:00;5.25;;;0.90;;
23714;SDS011;12036;50.858;4.472;2022-12-29T06:20:26;8.00;;;0.93;;
23714;SDS011;12036;50.858;4.472;2022-12-29T06:22:51;8.98;;;1.20;;
23714;SDS011;12036;50.858;4.472;2022-12-29T06:25:17;6.82;;;1.08;;
23714;SDS011;12036;50.858;4.472;2022-12-29T06:27:42;9.15;;;1.73;;
23714;SDS011;12036;50.858;4.472;2022-12-29T06:30:09;10.40;;;1.27;;
23714;SDS011;12036;50.858;4.472;2022-12-29T06:32:36;5.25;;;0.70;;
23714;SDS011;12036;50.858;4.472;2022-12-29T06:35:02;15.45;;;1.92;;
23714;SDS011;12036;50.858;4.472;2022-12-29T06:37:28;4.80;;;1.10;;
23714;SDS011;12036;50.858;4.472;2022-12-29T06:39:54;10.18;;;1.30;;
23714;SDS011;12036;50.858;4.472;2022-12-29T06:42:20;7.80;;;1.33;;
23714;SDS011;12036;50.858;4.472;2022-12-29T06:44:45;7.28;;;1.17;;
23714;SDS011;12036;50.858;4.472;2022-12-29T06:47:11;9.90;;;1.27;;
23714;SDS011;12036;50.858;4.472;2022-12-29T06:49:37;1.30;;;0.60;;
23714;SDS011;12036;50.858;4.472;2022-12-29T06:52:02;8.30;;;1.05;;
23714;SDS011;12036;50.858;4.472;2022-12-29T06:54:30;4.65;;;0.80;;
23714;SDS011;12036;50.858;4.472;2022-12-29T06:56:56;17.52;;;1.20;;
23714;SDS011;12036;50.858;4.472;2022-12-29T06:59:21;5.10;;;1.25;;
23714;SDS011;12036;50.858;4.472;2022-12-29T07:01:47;13.68;;;1.52;;
23714;SDS011;12036;50.858;4.472;2022-12-29T07:04:13;8.55;;;1.10;;
23714;SDS011;12036;50.858;4.472;2022-12-29T07:06:39;11.23;;;1.45;;
23714;SDS011;12036;50.858;4.472;2022-12-29T07:09:05;5.00;;;0.88;;
23714;SDS011;12036;50.858;4.472;2022-12-29T07:11:32;3.97;;;1.23;;
23714;SDS011;12036;50.858;4.472;2022-12-29T07:13:58;7.45;;;1.10;;
23714;SDS011;12036;50.858;4.472;2022-12-29T07:16:24;7.28;;;1.08;;
23714;SDS011;12036;50.858;4.472;2022-12-29T07:18:50;4.80;;;1.10;;
23714;SDS011;12036;50.858;4.472;2022-12-29T07:21:16;5.38;;;0.93;;
23714;SDS011;12036;50.858;4.472;2022-12-29T07:23:42;6.60;;;1.38;;
23714;SDS011;12036;50.858;4.472;2022-12-29T07:26:09;10.55;;;1.33;;
23714;SDS011;12036;50.858;4.472;2022-12-29T07:28:37;14.93;;;1.38;;
23714;SDS011;12036;50.858;4.472;2022-12-29T07:31:03;6.43;;;1.17;;
23714;SDS011;12036;50.858;4.472;2022-12-29T07:33:29;10.88;;;1.17;;
23714;SDS011;12036;50.858;4.472;2022-12-29T07:35:56;7.30;;;1.10;;
23714;SDS011;12036;50.858;4.472;2022-12-29T07:38:22;9.18;;;1.23;;
23714;SDS011;12036;50.858;4.472;2022-12-29T07:40:47;9.85;;;1.40;;
23714;SDS011;12036;50.858;4.472;2022-12-29T07:43:13;10.13;;;1.50;;
23714;SDS011;12036;50.858;4.472;2022-12-29T07:45:39;7.25;;;1.13;;
23714;SDS011;12036;50.858;4.472;2022-12-29T07:48:05;9.25;;;0.98;;
23714;SDS011;12036;50.858;4.472;2022-12-29T07:50:33;5.80;;;0.98;;
23714;SDS011;12036;50.858;4.472;2022-12-29T07:52:59;14.77;;;1.58;;
23714;SDS011;12036;50.858;4.472;2022-12-29T07:55:25;11.95;;;1.35;;
23714;SDS011;12036;50.858;4.472;2022-12-29T07:57:52;11.82;;;1.10;;
23714;SDS011;12036;50.858;4.472;2022-12-29T08:00:18;4.97;;;1.23;;
23714;SDS011;12036;50.858;4.472;2022-12-29T08:02:44;9.43;;;1.40;;
23714;SDS011;12036;50.858;4.472;2022-12-29T08:05:10;7.65;;;1.40;;
23714;SDS011;12036;50.858;4.472;2022-12-29T08:07:36;14.43;;;1.38;;
23714;SDS011;12036;50.858;4.472;2022-12-29T08:10:02;6.93;;;1.58;;
23714;SDS011;12036;50.858;4.472;2022-12-29T08:12:28;6.25;;;1.73;;
23714;SDS011;12036;50.858;4.472;2022-12-29T08:14:53;10.50;;;1.02;;
23714;SDS011;12036;50.858;4.472;2022-12-29T08:17:19;7.95;;;1.27;;
23714;SDS011;12036;50.858;4.472;2022-12-29T08:19:44;6.47;;;0.90;;
23714;SDS011;12036;50.858;4.472;2022-12-29T08:22:10;8.35;;;1.05;;
23714;SDS011;12036;50.858;4.472;2022-12-29T08:24:36;4.97;;;1.17;;
23714;SDS011;12036;50.858;4.472;2022-12-29T08:27:01;12.63;;;1.40;;
23714;SDS011;12036;50.858;4.472;2022-12-29T08:29:27;13.07;;;1.60;;
23714;SDS011;12036;50.858;4.472;2022-12-29T08:31:53;6.13;;;1.10;;
23714;SDS011;12036;50.858;4.472;2022-12-29T08:34:18;12.05;;;1.23;;
23714;SDS011;12036;50.858;4.472;2022-12-29T08:36:44;12.75;;;2.17;;
23714;SDS011;12036;50.858;4.472;2022-12-29T08:39:10;7.75;;;1.55;;
23714;SDS011;12036;50.858;4.472;2022-12-29T08:41:35;9.18;;;1.85;;
23714;SDS011;12036;50.858;4.472;2022-12-29T08:44:01;5.03;;;1.90;;
23714;SDS011;12036;50.858;4.472;2022-12-29T08:46:27;6.78;;;1.13;;
23714;SDS011;12036;50.858;4.472;2022-12-29T08:48:53;9.95;;;1.20;;
23714;SDS011;12036;50.858;4.472;2022-12-29T08:51:18;10.23;;;1.88;;
23714;SDS011;12036;50.858;4.472;2022-12-29T08:53:44;13.10;;;2.08;;
23714;SDS011;12036;50.858;4.472;2022-12-29T08:56:10;13.18;;;2.20;;
23714;SDS011;12036;50.858;4.472;2022-12-29T08:58:36;12.80;;;1.65;;
23714;SDS011;12036;50.858;4.472;2022-12-29T09:01:02;10.50;;;1.20;;
23714;SDS011;12036;50.858;4.472;2022-12-29T09:03:28;3.67;;;0.73;;
23714;SDS011;12036;50.858;4.472;2022-12-29T09:05:54;9.10;;;1.30;;
23714;SDS011;12036;50.858;4.472;2022-12-29T09:08:21;8.35;;;1.25;;
23714;SDS011;12036;50.858;4.472;2022-12-29T09:10:47;9.23;;;1.15;;
23714;SDS011;12036;50.858;4.472;2022-12-29T09:13:13;13.27;;;1.50;;
23714;SDS011;12036;50.858;4.472;2022-12-29T09:15:39;15.25;;;1.75;;
23714;SDS011;12036;50.858;4.472;2022-12-29T09:18:05;11.93;;;1.33;;
23714;SDS011;12036;50.858;4.472;2022-12-29T09:20:32;7.95;;;1.17;;
23714;SDS011;12036;50.858;4.472;2022-12-29T09:22:58;7.15;;;1.20;;
23714;SDS011;12036;50.858;4.472;2022-12-29T09:25:24;10.32;;;1.50;;
23714;SDS011;12036;50.858;4.472;2022-12-29T09:27:50;10.18;;;1.42;;
23714;SDS011;12036;50.858;4.472;2022-12-29T09:30:18;7.30;;;0.98;;
23714;SDS011;12036;50.858;4.472;2022-12-29T09:32:45;10.63;;;1.40;;
23714;SDS011;12036;50.858;4.472;2022-12-29T09:35:12;9.80;;;1.40;;
23714;SDS011;12036;50.858;4.472;2022-12-29T09:37:38;7.70;;;1.30;;
23714;SDS011;12036;50.858;4.472;2022-12-29T09:40:04;7.45;;;1.35;;
23714;SDS011;12036;50.858;4.472;2022-12-29T09:45:23;7.38;;;1.90;;
23714;SDS011;12036;50.858;4.472;2022-12-29T09:47:57;14.30;;;1.52;;
23714;SDS011;12036;50.858;4.472;2022-12-29T09:53:05;9.52;;;1.67;;
23714;SDS011;12036;50.858;4.472;2022-12-29T09:55:41;11.95;;;1.52;;
23714;SDS011;12036;50.858;4.472;2022-12-29T09:58:13;6.03;;;1.08;;
23714;SDS011;12036;50.858;4.472;2022-12-29T10:01:05;10.55;;;1.58;;
23714;SDS011;12036;50.858;4.472;2022-12-29T10:03:52;14.00;;;1.60;;
23714;SDS011;12036;50.858;4.472;2022-12-29T10:06:28;9.18;;;0.95;;
23714;SDS011;12036;50.858;4.472;2022-12-29T10:15:14;12.32;;;1.30;;
23714;SDS011;12036;50.858;4.472;2022-12-29T10:17:56;10.95;;;1.45;;
23714;SDS011;12036;50.858;4.472;2022-12-29T10:25:54;14.00;;;1.90;;
23714;SDS011;12036;50.858;4.472;2022-12-29T10:28:22;11.82;;;1.40;;
23714;SDS011;12036;50.858;4.472;2022-12-29T10:30:52;6.35;;;1.42;;
23714;SDS011;12036;50.858;4.472;2022-12-29T10:33:21;11.38;;;1.55;;
23714;SDS011;12036;50.858;4.472;2022-12-29T10:35:51;12.48;;;1.65;;
23714;SDS011;12036;50.858;4.472;2022-12-29T10:40:50;11.73;;;1.52;;
23714;SDS011;12036;50.858;4.472;2022-12-29T10:43:31;12.25;;;1.80;;
23714;SDS011;12036;50.858;4.472;2022-12-29T10:46:12;8.02;;;1.33;;
23714;SDS011;12036;50.858;4.472;2022-12-29T10:48:40;9.98;;;1.63;;
23714;SDS011;12036;50.858;4.472;2022-12-29T10:51:10;13.63;;;1.73;;
23714;SDS011;12036;50.858;4.472;2022-12-29T10:53:43;16.67;;;2.03;;
23714;SDS011;12036;50.858;4.472;2022-12-29T10:56:21;12.63;;;2.25;;
23714;SDS011;12036;50.858;4.472;2022-12-29T11:01:46;8.90;;;1.58;;
23714;SDS011;12036;50.858;4.472;2022-12-29T11:04:36;13.35;;;1.75;;
23714;SDS011;12036;50.858;4.472;2022-12-29T11:07:11;16.35;;;1.83;;
23714;SDS011;12036;50.858;4.472;2022-12-29T11:09:40;9.35;;;2.08;;
23714;SDS011;12036;50.858;4.472;2022-12-29T11:15:14;11.45;;;1.45;;
23714;SDS011;12036;50.858;4.472;2022-12-29T11:17:48;12.95;;;1.90;;
23714;SDS011;12036;50.858;4.472;2022-12-29T11:20:34;10.43;;;1.38;;
23714;SDS011;12036;50.858;4.472;2022-12-29T11:23:05;9.15;;;1.90;;
23714;SDS011;12036;50.858;4.472;2022-12-29T11:25:46;8.38;;;1.55;;
23714;SDS011;12036;50.858;4.472;2022-12-29T11:28:29;9.70;;;1.40;;
23714;SDS011;12036;50.858;4.472;2022-12-29T11:31:00;14.82;;;2.90;;
23714;SDS011;12036;50.858;4.472;2022-12-29T11:33:28;9.07;;;1.77;;
23714;SDS011;12036;50.858;4.472;2022-12-29T11:36:36;7.68;;;1.58;;
23714;SDS011;12036;50.858;4.472;2022-12-29T11:38:46;8.52;;;1.10;;
23714;SDS011;12036;50.858;4.472;2022-12-29T11:43:47;12.48;;;1.90;;
23714;SDS011;12036;50.858;4.472;2022-12-29T11:46:14;9.75;;;1.80;;
23714;SDS011;12036;50.858;4.472;2022-12-29T11:48:44;8.50;;;1.60;;
23714;SDS011;12036;50.858;4.472;2022-12-29T11:51:12;10.18;;;1.75;;
23714;SDS011;12036;50.858;4.472;2022-12-29T11:53:46;10.68;;;1.63;;
23714;SDS011;12036;50.858;4.472;2022-12-29T11:56:16;9.50;;;2.03;;
23714;SDS011;12036;50.858;4.472;2022-12-29T11:58:58;11.48;;;1.60;;
23714;SDS011;12036;50.858;4.472;2022-12-29T12:01:43;12.95;;;2.13;;
23714;SDS011;12036;50.858;4.472;2022-12-29T12:04:12;8.52;;;2.38;;
23714;SDS011;12036;50.858;4.472;2022-12-29T12:06:43;9.38;;;2.03;;
23714;SDS011;12036;50.858;4.472;2022-12-29T12:09:16;8.02;;;1.40;;
23714;SDS011;12036;50.858;4.472;2022-12-29T12:11:48;10.32;;;1.50;;
23714;SDS011;12036;50.858;4.472;2022-12-29T12:17:03;9.63;;;1.35;;
23714;SDS011;12036;50.858;4.472;2022-12-29T12:19:59;5.00;;;0.90;;
23714;SDS011;12036;50.858;4.472;2022-12-29T12:22:27;9.00;;;1.40;;
23714;SDS011;12036;50.858;4.472;2022-12-29T12:24:59;12.95;;;1.52;;
23714;SDS011;12036;50.858;4.472;2022-12-29T12:28:10;12.48;;;1.30;;
23714;SDS011;12036;50.858;4.472;2022-12-29T12:30:36;7.35;;;1.00;;
23714;SDS011;12036;50.858;4.472;2022-12-29T12:33:13;6.65;;;1.42;;
23714;SDS011;12036;50.858;4.472;2022-12-29T12:50:57;11.23;;;1.83;;
23714;SDS011;12036;50.858;4.472;2022-12-29T12:56:47;9.98;;;2.55;;
23714;SDS011;12036;50.858;4.472;2022-12-29T13:02:40;10.60;;;1.40;;
23714;SDS011;12036;50.858;4.472;2022-12-29T13:10:50;5.45;;;1.27;;
23714;SDS011;12036;50.858;4.472;2022-12-29T13:13:51;3.65;;;0.95;;
23714;SDS011;12036;50.858;4.472;2022-12-29T13:16:41;9.82;;;1.65;;
23714;SDS011;12036;50.858;4.472;2022-12-29T13:31:04;9.70;;;1.55;;
23714;SDS011;12036;50.858;4.472;2022-12-29T13:38:51;8.50;;;1.48;;
23714;SDS011;12036;50.858;4.472;2022-12-29T13:41:29;13.25;;;1.90;;
23714;SDS011;12036;50.858;4.472;2022-12-29T13:44:00;7.60;;;1.30;;
23714;SDS011;12036;50.858;4.472;2022-12-29T13:46:29;8.35;;;1.60;;
23714;SDS011;12036;50.858;4.472;2022-12-29T13:51:47;8.52;;;1.30;;
23714;SDS011;12036;50.858;4.472;2022-12-29T13:59:57;9.27;;;1.40;;
23714;SDS011;12036;50.858;4.472;2022-12-29T14:07:45;10.15;;;1.65;;
23714;SDS011;12036;50.858;4.472;2022-12-29T14:10:55;8.02;;;1.92;;
23714;SDS011;12036;50.858;4.472;2022-12-29T14:13:12;7.65;;;1.77;;
23714;SDS011;12036;50.858;4.472;2022-12-29T14:16:01;10.75;;;1.60;;
23714;SDS011;12036;50.858;4.472;2022-12-29T14:18:29;8.60;;;1.58;;
23714;SDS011;12036;50.858;4.472;2022-12-29T14:23:34;8.07;;;1.50;;
23714;SDS011;12036;50.858;4.472;2022-12-29T14:28:35;8.43;;;1.95;;
23714;SDS011;12036;50.858;4.472;2022-12-29T14:33:40;10.82;;;1.90;;
23714;SDS011;12036;50.858;4.472;2022-12-29T14:36:32;9.32;;;1.83;;
23714;SDS011;12036;50.858;4.472;2022-12-29T14:38:58;9.85;;;2.28;;
23714;SDS011;12036;50.858;4.472;2022-12-29T14:43:56;8.68;;;1.92;;
23714;SDS011;12036;50.858;4.472;2022-12-29T14:49:22;7.80;;;1.55;;
23714;SDS011;12036;50.858;4.472;2022-12-29T14:52:16;10.65;;;1.88;;
23714;SDS011;12036;50.858;4.472;2022-12-29T14:54:59;4.78;;;1.33;;
23714;SDS011;12036;50.858;4.472;2022-12-29T14:57:57;6.55;;;1.17;;
23714;SDS011;12036;50.858;4.472;2022-12-29T15:00:27;7.15;;;1.13;;
23714;SDS011;12036;50.858;4.472;2022-12-29T15:05:48;10.23;;;1.50;;
23714;SDS011;12036;50.858;4.472;2022-12-29T15:08:20;4.43;;;1.02;;
23714;SDS011;12036;50.858;4.472;2022-12-29T15:13:36;8.43;;;1.40;;
23714;SDS011;12036;50.858;4.472;2022-12-29T15:16:05;4.35;;;0.90;;
23714;SDS011;12036;50.858;4.472;2022-12-29T15:18:50;7.53;;;1.05;;
23714;SDS011;12036;50.858;4.472;2022-12-29T15:21:16;5.10;;;1.10;;
23714;SDS011;12036;50.858;4.472;2022-12-29T15:23:45;6.43;;;1.15;;
23714;SDS011;12036;50.858;4.472;2022-12-29T15:26:11;3.42;;;0.85;;
23714;SDS011;12036;50.858;4.472;2022-12-29T15:28:38;7.82;;;0.60;;
23714;SDS011;12036;50.858;4.472;2022-12-29T15:31:19;6.55;;;1.15;;
23714;SDS011;12036;50.858;4.472;2022-12-29T15:33:46;9.38;;;2.80;;
23714;SDS011;12036;50.858;4.472;2022-12-29T15:36:24;8.40;;;1.70;;
23714;SDS011;12036;50.858;4.472;2022-12-29T15:38:52;6.38;;;1.30;;
23714;SDS011;12036;50.858;4.472;2022-12-29T15:41:26;14.63;;;1.70;;
23714;SDS011;12036;50.858;4.472;2022-12-29T15:44:21;4.95;;;1.38;;
23714;SDS011;12036;50.858;4.472;2022-12-29T15:46:51;5.93;;;1.35;;
23714;SDS011;12036;50.858;4.472;2022-12-29T15:49:17;2.65;;;0.73;;
23714;SDS011;12036;50.858;4.472;2022-12-29T15:51:43;8.07;;;1.20;;
23714;SDS011;12036;50.858;4.472;2022-12-29T15:54:16;12.30;;;4.18;;
23714;SDS011;12036;50.858;4.472;2022-12-29T15:56:43;9.05;;;2.17;;
23714;SDS011;12036;50.858;4.472;2022-12-29T15:59:29;7.63;;;1.30;;
23714;SDS011;12036;50.858;4.472;2022-12-29T16:01:59;9.50;;;1.30;;
23714;SDS011;12036;50.858;4.472;2022-12-29T16:04:28;5.10;;;1.70;;
23714;SDS011;12036;50.858;4.472;2022-12-29T16:07:00;9.02;;;2.08;;
23714;SDS011;12036;50.858;4.472;2022-12-29T16:14:31;5.27;;;1.60;;
23714;SDS011;12036;50.858;4.472;2022-12-29T16:17:02;6.80;;;1.40;;
23714;SDS011;12036;50.858;4.472;2022-12-29T16:19:38;15.40;;;1.60;;
23714;SDS011;12036;50.858;4.472;2022-12-29T16:22:10;8.95;;;1.77;;
23714;SDS011;12036;50.858;4.472;2022-12-29T16:24:41;5.75;;;1.73;;
23714;SDS011;12036;50.858;4.472;2022-12-29T16:27:18;8.90;;;1.77;;
23714;SDS011;12036;50.858;4.472;2022-12-29T16:29:48;8.07;;;2.27;;
23714;SDS011;12036;50.858;4.472;2022-12-29T16:32:30;9.02;;;2.17;;
23714;SDS011;12036;50.858;4.472;2022-12-29T16:35:09;12.60;;;2.20;;
23714;SDS011;12036;50.858;4.472;2022-12-29T16:37:43;9.70;;;2.45;;
23714;SDS011;12036;50.858;4.472;2022-12-29T16:42:47;11.18;;;2.42;;
23714;SDS011;12036;50.858;4.472;2022-12-29T16:47:43;20.88;;;3.00;;
23714;SDS011;12036;50.858;4.472;2022-12-29T16:50:11;16.50;;;3.83;;
23714;SDS011;12036;50.858;4.472;2022-12-29T16:52:41;17.75;;;4.03;;
23714;SDS011;12036;50.858;4.472;2022-12-29T16:55:14;13.98;;;3.33;;
23714;SDS011;12036;50.858;4.472;2022-12-29T16:57:41;20.00;;;3.85;;
23714;SDS011;12036;50.858;4.472;2022-12-29T17:03:10;15.35;;;3.58;;
23714;SDS011;12036;50.858;4.472;2022-12-29T17:05:36;18.40;;;3.40;;
23714;SDS011;12036;50.858;4.472;2022-12-29T17:08:02;18.08;;;3.72;;
23714;SDS011;12036;50.858;4.472;2022-12-29T17:10:28;21.40;;;3.33;;
23714;SDS011;12036;50.858;4.472;2022-12-29T17:13:12;17.25;;;3.45;;
23714;SDS011;12036;50.858;4.472;2022-12-29T17:15:38;18.55;;;2.83;;
23714;SDS011;12036;50.858;4.472;2022-12-29T17:18:04;12.48;;;2.78;;
23714;SDS011;12036;50.858;4.472;2022-12-29T17:20:30;12.68;;;2.55;;
23714;SDS011;12036;50.858;4.472;2022-12-29T17:22:57;19.58;;;3.65;;
23714;SDS011;12036;50.858;4.472;2022-12-29T17:25:34;21.75;;;4.85;;
23714;SDS011;12036;50.858;4.472;2022-12-29T17:28:02;25.95;;;6.55;;
23714;SDS011;12036;50.858;4.472;2022-12-29T17:30:40;14.55;;;3.83;;
23714;SDS011;12036;50.858;4.472;2022-12-29T17:33:08;16.13;;;2.95;;
23714;SDS011;12036;50.858;4.472;2022-12-29T17:35:37;19.87;;;3.40;;
23714;SDS011;12036;50.858;4.472;2022-12-29T17:38:09;18.23;;;2.75;;
23714;SDS011;12036;50.858;4.472;2022-12-29T17:40:48;14.23;;;2.95;;